aviador You're here:

CYSC Decoded Metar

SHERBROOKE in QC, CANADA
Report Time2017-04-29 11:00:00
UTC Time2017-04-29 11:15:54
Flight Rules vfr VFR
Wind240° at 04 kt
W.Decomp.*RWY 32: 1.8 kt HW 3.6 kt LCW
W.Rank240° ranks 6
Current wind is below 240° avg. (6.8)
Visibility9999 m
Phenomena:N/A
Clouds:Overcast 090 Hf
Expected CloudBase > 2,400 ft AGL from Temp-Dew spread
Ceiling9,000 ft
Temp12°C (ISA -1)
Dew Point06°C (67% RH)
AAT9.7°C
QNH1012 hPa
Density Alt784 ft
Elevation791 ft
Report Wrong Elevation
Raw Report
CYSC 291100Z AUTO 24004KT 9SM OVC090 12/06 A2988 RMK SLP123=

Extra information for CYSC:More info

Metar Taf Metar & Taf Last 4 Metars F.Rules Stats Wind Profile Meteogram Temp Stats Airport Information Weather charts Add Link Nearby VenuesMetar ALERT Operation Metar Decoded Social comments